sensor_id;sensor_type;location;lat;lon;timestamp;P1;durP1;ratioP1;P2;durP2;ratioP2
5060;SDS011;2549;52.128;21.068;2022-07-01T00:00:50;10.30;;;6.53;;
5060;SDS011;2549;52.128;21.068;2022-07-01T00:03:17;20.87;;;6.00;;
5060;SDS011;2549;52.128;21.068;2022-07-01T00:05:44;12.50;;;6.80;;
5060;SDS011;2549;52.128;21.068;2022-07-01T00:08:11;14.23;;;6.47;;
5060;SDS011;2549;52.128;21.068;2022-07-01T00:10:38;10.00;;;6.90;;
5060;SDS011;2549;52.128;21.068;2022-07-01T00:13:05;11.27;;;6.67;;
5060;SDS011;2549;52.128;21.068;2022-07-01T00:15:34;15.10;;;6.93;;
5060;SDS011;2549;52.128;21.068;2022-07-01T00:18:02;13.83;;;6.87;;
5060;SDS011;2549;52.128;21.068;2022-07-01T00:20:29;9.57;;;7.23;;
5060;SDS011;2549;52.128;21.068;2022-07-01T00:22:56;13.80;;;7.30;;
5060;SDS011;2549;52.128;21.068;2022-07-01T00:25:23;8.73;;;7.13;;
5060;SDS011;2549;52.128;21.068;2022-07-01T00:27:49;16.23;;;7.60;;
5060;SDS011;2549;52.128;21.068;2022-07-01T00:30:16;9.20;;;6.23;;
5060;SDS011;2549;52.128;21.068;2022-07-01T00:32:43;10.40;;;7.37;;
5060;SDS011;2549;52.128;21.068;2022-07-01T00:35:10;16.00;;;7.83;;
5060;SDS011;2549;52.128;21.068;2022-07-01T00:37:38;8.80;;;6.47;;
5060;SDS011;2549;52.128;21.068;2022-07-01T00:40:05;14.37;;;7.87;;
5060;SDS011;2549;52.128;21.068;2022-07-01T00:42:37;10.60;;;7.47;;
5060;SDS011;2549;52.128;21.068;2022-07-01T00:45:06;16.17;;;7.20;;
5060;SDS011;2549;52.128;21.068;2022-07-01T00:47:34;13.63;;;8.20;;
5060;SDS011;2549;52.128;21.068;2022-07-01T00:50:03;11.60;;;8.07;;
5060;SDS011;2549;52.128;21.068;2022-07-01T00:52:33;12.67;;;7.60;;
5060;SDS011;2549;52.128;21.068;2022-07-01T00:55:04;10.10;;;8.13;;
5060;SDS011;2549;52.128;21.068;2022-07-01T00:57:33;12.57;;;7.63;;
5060;SDS011;2549;52.128;21.068;2022-07-01T01:00:09;18.50;;;7.90;;
5060;SDS011;2549;52.128;21.068;2022-07-01T01:02:41;8.40;;;7.43;;
5060;SDS011;2549;52.128;21.068;2022-07-01T01:05:09;9.90;;;7.97;;
5060;SDS011;2549;52.128;21.068;2022-07-01T01:07:36;8.47;;;7.67;;
5060;SDS011;2549;52.128;21.068;2022-07-01T01:10:03;9.40;;;8.47;;
5060;SDS011;2549;52.128;21.068;2022-07-01T01:12:30;12.03;;;8.03;;
5060;SDS011;2549;52.128;21.068;2022-07-01T01:14:58;10.50;;;8.00;;
5060;SDS011;2549;52.128;21.068;2022-07-01T01:17:24;15.43;;;8.07;;
5060;SDS011;2549;52.128;21.068;2022-07-01T01:19:52;14.60;;;8.40;;
5060;SDS011;2549;52.128;21.068;2022-07-01T01:22:19;15.10;;;8.53;;
5060;SDS011;2549;52.128;21.068;2022-07-01T01:24:46;19.33;;;8.20;;
5060;SDS011;2549;52.128;21.068;2022-07-01T01:27:14;16.77;;;8.03;;
5060;SDS011;2549;52.128;21.068;2022-07-01T01:29:43;10.70;;;8.43;;
5060;SDS011;2549;52.128;21.068;2022-07-01T01:32:10;9.03;;;7.50;;
5060;SDS011;2549;52.128;21.068;2022-07-01T01:34:38;14.30;;;7.70;;
5060;SDS011;2549;52.128;21.068;2022-07-01T01:37:07;12.53;;;8.03;;
5060;SDS011;2549;52.128;21.068;2022-07-01T01:39:34;11.80;;;8.07;;
5060;SDS011;2549;52.128;21.068;2022-07-01T01:42:06;12.53;;;7.77;;
5060;SDS011;2549;52.128;21.068;2022-07-01T01:44:34;8.80;;;7.53;;
5060;SDS011;2549;52.128;21.068;2022-07-01T01:47:01;14.03;;;7.63;;
5060;SDS011;2549;52.128;21.068;2022-07-01T01:49:29;17.13;;;7.30;;
5060;SDS011;2549;52.128;21.068;2022-07-01T01:51:59;21.87;;;8.50;;
5060;SDS011;2549;52.128;21.068;2022-07-01T01:54:26;15.30;;;8.90;;
5060;SDS011;2549;52.128;21.068;2022-07-01T01:56:53;11.67;;;7.60;;
5060;SDS011;2549;52.128;21.068;2022-07-01T01:59:20;18.00;;;8.67;;
5060;SDS011;2549;52.128;21.068;2022-07-01T02:01:47;12.77;;;8.73;;
5060;SDS011;2549;52.128;21.068;2022-07-01T02:04:14;37.60;;;9.13;;
5060;SDS011;2549;52.128;21.068;2022-07-01T02:06:41;9.43;;;8.03;;
5060;SDS011;2549;52.128;21.068;2022-07-01T02:09:08;16.77;;;8.90;;
5060;SDS011;2549;52.128;21.068;2022-07-01T02:11:35;17.30;;;9.17;;
5060;SDS011;2549;52.128;21.068;2022-07-01T02:14:02;16.43;;;9.50;;
5060;SDS011;2549;52.128;21.068;2022-07-01T02:16:29;15.30;;;9.00;;
5060;SDS011;2549;52.128;21.068;2022-07-01T02:18:56;13.60;;;9.77;;
5060;SDS011;2549;52.128;21.068;2022-07-01T02:21:23;13.27;;;9.97;;
5060;SDS011;2549;52.128;21.068;2022-07-01T02:23:50;10.10;;;9.10;;
5060;SDS011;2549;52.128;21.068;2022-07-01T02:26:18;13.63;;;8.43;;
5060;SDS011;2549;52.128;21.068;2022-07-01T02:28:45;15.20;;;9.77;;
5060;SDS011;2549;52.128;21.068;2022-07-01T02:31:12;13.40;;;9.53;;
5060;SDS011;2549;52.128;21.068;2022-07-01T02:33:39;15.10;;;10.30;;
5060;SDS011;2549;52.128;21.068;2022-07-01T02:36:07;11.87;;;8.70;;
5060;SDS011;2549;52.128;21.068;2022-07-01T02:38:34;9.63;;;8.60;;
5060;SDS011;2549;52.128;21.068;2022-07-01T02:41:01;11.07;;;9.20;;
5060;SDS011;2549;52.128;21.068;2022-07-01T02:43:27;11.43;;;8.40;;
5060;SDS011;2549;52.128;21.068;2022-07-01T02:45:56;16.23;;;9.10;;
5060;SDS011;2549;52.128;21.068;2022-07-01T02:48:24;12.20;;;8.50;;
5060;SDS011;2549;52.128;21.068;2022-07-01T02:50:51;14.53;;;9.47;;
5060;SDS011;2549;52.128;21.068;2022-07-01T02:53:17;12.57;;;9.20;;
5060;SDS011;2549;52.128;21.068;2022-07-01T02:55:44;13.30;;;10.23;;
5060;SDS011;2549;52.128;21.068;2022-07-01T02:58:11;13.07;;;10.00;;
5060;SDS011;2549;52.128;21.068;2022-07-01T03:00:38;11.90;;;9.43;;
5060;SDS011;2549;52.128;21.068;2022-07-01T03:03:05;14.83;;;9.97;;
5060;SDS011;2549;52.128;21.068;2022-07-01T03:05:32;17.73;;;10.00;;
5060;SDS011;2549;52.128;21.068;2022-07-01T03:07:59;12.70;;;9.93;;
5060;SDS011;2549;52.128;21.068;2022-07-01T03:10:26;17.53;;;10.03;;
5060;SDS011;2549;52.128;21.068;2022-07-01T03:12:53;13.07;;;10.60;;
5060;SDS011;2549;52.128;21.068;2022-07-01T03:15:20;14.97;;;11.57;;
5060;SDS011;2549;52.128;21.068;2022-07-01T03:17:47;18.50;;;10.00;;
5060;SDS011;2549;52.128;21.068;2022-07-01T03:20:17;25.97;;;11.00;;
5060;SDS011;2549;52.128;21.068;2022-07-01T03:22:45;11.23;;;10.13;;
5060;SDS011;2549;52.128;21.068;2022-07-01T03:25:12;14.00;;;10.60;;
5060;SDS011;2549;52.128;21.068;2022-07-01T03:27:39;13.37;;;9.70;;
5060;SDS011;2549;52.128;21.068;2022-07-01T03:30:12;10.43;;;9.37;;
5060;SDS011;2549;52.128;21.068;2022-07-01T03:32:40;13.50;;;9.10;;
5060;SDS011;2549;52.128;21.068;2022-07-01T03:35:08;22.10;;;10.83;;
5060;SDS011;2549;52.128;21.068;2022-07-01T03:37:55;12.57;;;9.33;;
5060;SDS011;2549;52.128;21.068;2022-07-01T03:40:22;16.53;;;10.60;;
5060;SDS011;2549;52.128;21.068;2022-07-01T03:42:49;13.40;;;10.07;;
5060;SDS011;2549;52.128;21.068;2022-07-01T03:45:16;14.13;;;9.90;;
5060;SDS011;2549;52.128;21.068;2022-07-01T03:47:49;21.60;;;10.20;;
5060;SDS011;2549;52.128;21.068;2022-07-01T03:50:17;21.63;;;11.80;;
5060;SDS011;2549;52.128;21.068;2022-07-01T03:52:47;16.30;;;11.70;;
5060;SDS011;2549;52.128;21.068;2022-07-01T03:55:14;12.33;;;9.83;;
5060;SDS011;2549;52.128;21.068;2022-07-01T03:57:43;16.90;;;11.50;;
5060;SDS011;2549;52.128;21.068;2022-07-01T04:00:10;12.33;;;11.00;;
5060;SDS011;2549;52.128;21.068;2022-07-01T04:02:43;15.53;;;10.83;;
5060;SDS011;2549;52.128;21.068;2022-07-01T04:05:10;16.50;;;11.57;;
5060;SDS011;2549;52.128;21.068;2022-07-01T04:07:37;16.33;;;11.50;;
5060;SDS011;2549;52.128;21.068;2022-07-01T04:10:04;17.40;;;12.70;;
5060;SDS011;2549;52.128;21.068;2022-07-01T04:12:32;12.30;;;11.10;;
5060;SDS011;2549;52.128;21.068;2022-07-01T04:14:59;18.40;;;12.17;;
5060;SDS011;2549;52.128;21.068;2022-07-01T04:17:26;15.67;;;11.47;;
5060;SDS011;2549;52.128;21.068;2022-07-01T04:19:53;12.30;;;11.10;;
5060;SDS011;2549;52.128;21.068;2022-07-01T04:22:20;15.33;;;10.80;;
5060;SDS011;2549;52.128;21.068;2022-07-01T04:24:59;21.37;;;11.83;;
5060;SDS011;2549;52.128;21.068;2022-07-01T04:27:27;19.43;;;11.33;;
5060;SDS011;2549;52.128;21.068;2022-07-01T04:29:54;13.43;;;11.00;;
5060;SDS011;2549;52.128;21.068;2022-07-01T04:32:20;15.87;;;12.10;;
5060;SDS011;2549;52.128;21.068;2022-07-01T04:34:47;13.40;;;11.90;;
5060;SDS011;2549;52.128;21.068;2022-07-01T04:37:15;15.83;;;12.47;;
5060;SDS011;2549;52.128;21.068;2022-07-01T04:39:41;17.30;;;11.00;;
5060;SDS011;2549;52.128;21.068;2022-07-01T04:42:08;28.63;;;12.97;;
5060;SDS011;2549;52.128;21.068;2022-07-01T04:44:36;22.43;;;13.40;;
5060;SDS011;2549;52.128;21.068;2022-07-01T04:47:09;19.57;;;11.93;;
5060;SDS011;2549;52.128;21.068;2022-07-01T04:49:36;14.80;;;12.17;;
5060;SDS011;2549;52.128;21.068;2022-07-01T04:52:03;17.90;;;11.90;;
5060;SDS011;2549;52.128;21.068;2022-07-01T04:54:30;20.50;;;11.67;;
5060;SDS011;2549;52.128;21.068;2022-07-01T04:56:57;23.70;;;12.57;;
5060;SDS011;2549;52.128;21.068;2022-07-01T04:59:23;16.33;;;10.90;;
5060;SDS011;2549;52.128;21.068;2022-07-01T05:01:50;15.97;;;12.07;;
5060;SDS011;2549;52.128;21.068;2022-07-01T05:04:17;17.53;;;12.60;;
5060;SDS011;2549;52.128;21.068;2022-07-01T05:06:45;13.03;;;11.43;;
5060;SDS011;2549;52.128;21.068;2022-07-01T05:09:12;14.07;;;11.80;;
5060;SDS011;2549;52.128;21.068;2022-07-01T05:11:40;14.67;;;12.30;;
5060;SDS011;2549;52.128;21.068;2022-07-01T05:14:07;15.90;;;12.27;;
5060;SDS011;2549;52.128;21.068;2022-07-01T05:16:34;13.10;;;11.50;;
5060;SDS011;2549;52.128;21.068;2022-07-01T05:19:02;17.33;;;13.00;;
5060;SDS011;2549;52.128;21.068;2022-07-01T05:21:48;14.70;;;12.60;;
5060;SDS011;2549;52.128;21.068;2022-07-01T05:24:29;14.90;;;11.73;;
5060;SDS011;2549;52.128;21.068;2022-07-01T05:30:33;16.63;;;12.50;;
5060;SDS011;2549;52.128;21.068;2022-07-01T05:33:00;14.40;;;11.80;;
5060;SDS011;2549;52.128;21.068;2022-07-01T05:35:27;25.17;;;13.80;;
5060;SDS011;2549;52.128;21.068;2022-07-01T05:37:54;14.27;;;12.47;;
5060;SDS011;2549;52.128;21.068;2022-07-01T05:40:20;14.67;;;13.17;;
5060;SDS011;2549;52.128;21.068;2022-07-01T05:42:47;15.63;;;13.00;;
5060;SDS011;2549;52.128;21.068;2022-07-01T05:45:14;14.53;;;11.47;;
5060;SDS011;2549;52.128;21.068;2022-07-01T05:47:42;16.33;;;12.10;;
5060;SDS011;2549;52.128;21.068;2022-07-01T05:50:08;14.97;;;13.37;;
5060;SDS011;2549;52.128;21.068;2022-07-01T05:52:35;17.37;;;12.70;;
5060;SDS011;2549;52.128;21.068;2022-07-01T05:55:03;13.57;;;12.20;;
5060;SDS011;2549;52.128;21.068;2022-07-01T05:57:30;17.77;;;12.50;;
5060;SDS011;2549;52.128;21.068;2022-07-01T05:59:56;15.50;;;12.90;;
5060;SDS011;2549;52.128;21.068;2022-07-01T06:02:23;19.53;;;12.80;;
5060;SDS011;2549;52.128;21.068;2022-07-01T06:04:50;14.17;;;12.57;;
5060;SDS011;2549;52.128;21.068;2022-07-01T06:07:17;13.50;;;11.37;;
5060;SDS011;2549;52.128;21.068;2022-07-01T06:09:44;15.40;;;12.83;;
5060;SDS011;2549;52.128;21.068;2022-07-01T06:12:11;17.43;;;13.00;;
5060;SDS011;2549;52.128;21.068;2022-07-01T06:14:38;14.80;;;11.57;;
5060;SDS011;2549;52.128;21.068;2022-07-01T06:17:06;15.23;;;12.13;;
5060;SDS011;2549;52.128;21.068;2022-07-01T06:19:34;14.20;;;10.97;;
5060;SDS011;2549;52.128;21.068;2022-07-01T06:22:01;15.90;;;12.73;;
5060;SDS011;2549;52.128;21.068;2022-07-01T06:24:28;13.37;;;11.87;;
5060;SDS011;2549;52.128;21.068;2022-07-01T06:26:55;16.23;;;12.03;;
5060;SDS011;2549;52.128;21.068;2022-07-01T06:29:22;15.97;;;12.20;;
5060;SDS011;2549;52.128;21.068;2022-07-01T06:31:49;14.13;;;11.77;;
5060;SDS011;2549;52.128;21.068;2022-07-01T06:34:16;14.33;;;12.60;;
5060;SDS011;2549;52.128;21.068;2022-07-01T06:36:43;13.60;;;12.10;;
5060;SDS011;2549;52.128;21.068;2022-07-01T06:39:09;19.63;;;13.13;;
5060;SDS011;2549;52.128;21.068;2022-07-01T06:41:36;17.73;;;11.73;;
5060;SDS011;2549;52.128;21.068;2022-07-01T06:44:03;19.93;;;14.00;;
5060;SDS011;2549;52.128;21.068;2022-07-01T06:46:33;16.97;;;11.90;;
5060;SDS011;2549;52.128;21.068;2022-07-01T06:49:00;19.77;;;12.53;;
5060;SDS011;2549;52.128;21.068;2022-07-01T06:51:28;14.80;;;12.67;;
5060;SDS011;2549;52.128;21.068;2022-07-01T06:53:55;15.47;;;12.27;;
5060;SDS011;2549;52.128;21.068;2022-07-01T06:56:22;18.90;;;12.70;;
5060;SDS011;2549;52.128;21.068;2022-07-01T06:58:48;16.17;;;11.33;;
5060;SDS011;2549;52.128;21.068;2022-07-01T07:01:15;16.60;;;11.83;;
5060;SDS011;2549;52.128;21.068;2022-07-01T07:03:43;12.90;;;11.60;;
5060;SDS011;2549;52.128;21.068;2022-07-01T07:06:10;21.80;;;11.80;;
5060;SDS011;2549;52.128;21.068;2022-07-01T07:08:37;21.53;;;12.30;;
5060;SDS011;2549;52.128;21.068;2022-07-01T07:11:05;18.07;;;12.70;;
5060;SDS011;2549;52.128;21.068;2022-07-01T07:13:33;15.67;;;12.10;;
5060;SDS011;2549;52.128;21.068;2022-07-01T07:16:00;20.43;;;12.10;;
5060;SDS011;2549;52.128;21.068;2022-07-01T07:18:26;15.40;;;12.13;;
5060;SDS011;2549;52.128;21.068;2022-07-01T07:20:54;20.30;;;12.40;;
5060;SDS011;2549;52.128;21.068;2022-07-01T07:23:25;14.93;;;12.50;;
5060;SDS011;2549;52.128;21.068;2022-07-01T07:25:52;13.30;;;12.00;;
5060;SDS011;2549;52.128;21.068;2022-07-01T07:28:19;14.43;;;12.10;;
5060;SDS011;2549;52.128;21.068;2022-07-01T07:30:46;15.47;;;11.50;;
5060;SDS011;2549;52.128;21.068;2022-07-01T07:33:13;23.03;;;11.27;;
5060;SDS011;2549;52.128;21.068;2022-07-01T07:35:40;17.80;;;11.77;;
5060;SDS011;2549;52.128;21.068;2022-07-01T07:38:07;22.67;;;12.20;;
5060;SDS011;2549;52.128;21.068;2022-07-01T07:40:34;18.73;;;11.70;;
5060;SDS011;2549;52.128;21.068;2022-07-01T07:43:01;17.80;;;12.27;;
5060;SDS011;2549;52.128;21.068;2022-07-01T07:45:31;12.93;;;11.57;;
5060;SDS011;2549;52.128;21.068;2022-07-01T07:47:58;23.93;;;12.23;;
5060;SDS011;2549;52.128;21.068;2022-07-01T07:50:26;17.73;;;10.70;;
5060;SDS011;2549;52.128;21.068;2022-07-01T07:52:53;20.20;;;10.73;;
5060;SDS011;2549;52.128;21.068;2022-07-01T07:55:20;20.63;;;11.20;;
5060;SDS011;2549;52.128;21.068;2022-07-01T07:57:47;12.33;;;11.03;;
5060;SDS011;2549;52.128;21.068;2022-07-01T08:00:14;23.20;;;9.50;;
5060;SDS011;2549;52.128;21.068;2022-07-01T08:02:41;12.53;;;10.10;;
5060;SDS011;2549;52.128;21.068;2022-07-01T08:05:09;16.17;;;10.40;;
5060;SDS011;2549;52.128;21.068;2022-07-01T08:07:37;15.00;;;10.63;;
5060;SDS011;2549;52.128;21.068;2022-07-01T08:10:06;20.80;;;10.10;;
5060;SDS011;2549;52.128;21.068;2022-07-01T08:12:35;14.60;;;10.33;;
5060;SDS011;2549;52.128;21.068;2022-07-01T08:15:02;15.13;;;10.83;;
5060;SDS011;2549;52.128;21.068;2022-07-01T08:17:30;11.83;;;9.87;;
5060;SDS011;2549;52.128;21.068;2022-07-01T08:19:57;11.33;;;9.00;;
5060;SDS011;2549;52.128;21.068;2022-07-01T08:22:24;12.17;;;9.30;;
5060;SDS011;2549;52.128;21.068;2022-07-01T08:24:51;10.00;;;8.57;;
5060;SDS011;2549;52.128;21.068;2022-07-01T08:27:18;10.40;;;8.90;;
5060;SDS011;2549;52.128;21.068;2022-07-01T08:29:45;12.27;;;8.57;;
5060;SDS011;2549;52.128;21.068;2022-07-01T08:32:12;9.80;;;8.43;;
5060;SDS011;2549;52.128;21.068;2022-07-01T08:34:39;12.77;;;8.33;;
5060;SDS011;2549;52.128;21.068;2022-07-01T08:37:07;10.30;;;8.40;;
5060;SDS011;2549;52.128;21.068;2022-07-01T08:39:34;9.20;;;8.00;;
5060;SDS011;2549;52.128;21.068;2022-07-01T08:42:01;8.80;;;7.90;;
5060;SDS011;2549;52.128;21.068;2022-07-01T08:44:28;14.00;;;8.53;;
5060;SDS011;2549;52.128;21.068;2022-07-01T08:46:54;8.87;;;7.70;;
5060;SDS011;2549;52.128;21.068;2022-07-01T08:49:21;9.17;;;8.20;;
5060;SDS011;2549;52.128;21.068;2022-07-01T08:51:49;9.47;;;6.73;;
5060;SDS011;2549;52.128;21.068;2022-07-01T08:54:16;11.17;;;6.90;;
5060;SDS011;2549;52.128;21.068;2022-07-01T08:56:43;10.33;;;7.30;;
5060;SDS011;2549;52.128;21.068;2022-07-01T08:59:13;11.83;;;8.00;;
5060;SDS011;2549;52.128;21.068;2022-07-01T09:01:56;9.30;;;7.20;;
5060;SDS011;2549;52.128;21.068;2022-07-01T09:04:25;8.77;;;7.90;;
5060;SDS011;2549;52.128;21.068;2022-07-01T09:06:53;9.33;;;8.17;;
5060;SDS011;2549;52.128;21.068;2022-07-01T09:09:35;9.97;;;7.63;;
5060;SDS011;2549;52.128;21.068;2022-07-01T09:12:03;7.90;;;7.20;;
5060;SDS011;2549;52.128;21.068;2022-07-01T09:14:31;8.60;;;7.90;;
5060;SDS011;2549;52.128;21.068;2022-07-01T09:17:04;9.73;;;7.13;;
5060;SDS011;2549;52.128;21.068;2022-07-01T09:19:33;8.67;;;7.80;;
5060;SDS011;2549;52.128;21.068;2022-07-01T09:22:09;8.17;;;7.50;;
5060;SDS011;2549;52.128;21.068;2022-07-01T09:27:13;7.40;;;6.70;;
5060;SDS011;2549;52.128;21.068;2022-07-01T09:29:44;14.10;;;7.27;;
5060;SDS011;2549;52.128;21.068;2022-07-01T09:32:13;10.00;;;6.87;;
5060;SDS011;2549;52.128;21.068;2022-07-01T09:34:53;7.90;;;7.20;;
5060;SDS011;2549;52.128;21.068;2022-07-01T09:37:23;8.00;;;7.30;;
5060;SDS011;2549;52.128;21.068;2022-07-01T09:39:52;13.90;;;7.80;;
5060;SDS011;2549;52.128;21.068;2022-07-01T09:42:21;10.87;;;6.90;;
5060;SDS011;2549;52.128;21.068;2022-07-01T09:44:56;15.50;;;7.60;;
5060;SDS011;2549;52.128;21.068;2022-07-01T09:47:29;9.83;;;7.07;;
5060;SDS011;2549;52.128;21.068;2022-07-01T09:49:58;15.50;;;7.37;;
5060;SDS011;2549;52.128;21.068;2022-07-01T09:52:26;8.60;;;7.70;;
5060;SDS011;2549;52.128;21.068;2022-07-01T09:55:02;7.63;;;6.83;;
5060;SDS011;2549;52.128;21.068;2022-07-01T09:57:33;7.80;;;7.20;;
5060;SDS011;2549;52.128;21.068;2022-07-01T10:00:01;13.13;;;7.50;;
5060;SDS011;2549;52.128;21.068;2022-07-01T10:02:29;9.53;;;7.57;;
5060;SDS011;2549;52.128;21.068;2022-07-01T10:05:03;8.90;;;7.10;;
5060;SDS011;2549;52.128;21.068;2022-07-01T10:13:19;7.80;;;6.80;;
5060;SDS011;2549;52.128;21.068;2022-07-01T10:15:50;8.83;;;7.17;;
5060;SDS011;2549;52.128;21.068;2022-07-01T10:18:19;13.60;;;7.53;;
5060;SDS011;2549;52.128;21.068;2022-07-01T10:20:48;9.67;;;7.10;;
5060;SDS011;2549;52.128;21.068;2022-07-01T10:23:15;9.23;;;6.90;;
5060;SDS011;2549;52.128;21.068;2022-07-01T10:25:43;6.60;;;6.00;;
5060;SDS011;2549;52.128;21.068;2022-07-01T10:28:17;10.63;;;6.50;;
5060;SDS011;2549;52.128;21.068;2022-07-01T10:30:59;9.83;;;6.00;;
5060;SDS011;2549;52.128;21.068;2022-07-01T10:35:55;13.40;;;6.63;;
5060;SDS011;2549;52.128;21.068;2022-07-01T10:38:22;8.47;;;6.30;;
5060;SDS011;2549;52.128;21.068;2022-07-01T10:40:48;9.10;;;6.53;;
5060;SDS011;2549;52.128;21.068;2022-07-01T10:43:16;7.30;;;6.33;;
5060;SDS011;2549;52.128;21.068;2022-07-01T10:45:58;9.93;;;6.40;;
5060;SDS011;2549;52.128;21.068;2022-07-01T10:48:25;7.87;;;6.10;;
5060;SDS011;2549;52.128;21.068;2022-07-01T10:50:54;9.43;;;6.23;;
5060;SDS011;2549;52.128;21.068;2022-07-01T10:53:21;10.23;;;6.77;;
5060;SDS011;2549;52.128;21.068;2022-07-01T10:55:52;6.70;;;6.10;;
5060;SDS011;2549;52.128;21.068;2022-07-01T10:58:36;6.83;;;6.17;;
5060;SDS011;2549;52.128;21.068;2022-07-01T11:01:04;9.43;;;6.50;;
5060;SDS011;2549;52.128;21.068;2022-07-01T11:03:34;13.47;;;6.17;;
5060;SDS011;2549;52.128;21.068;2022-07-01T11:06:03;14.47;;;6.50;;
5060;SDS011;2549;52.128;21.068;2022-07-01T11:08:30;6.73;;;6.17;;
5060;SDS011;2549;52.128;21.068;2022-07-01T11:10:58;22.50;;;8.13;;
5060;SDS011;2549;52.128;21.068;2022-07-01T11:13:28;10.83;;;6.53;;
5060;SDS011;2549;52.128;21.068;2022-07-01T11:15:56;10.83;;;6.10;;
5060;SDS011;2549;52.128;21.068;2022-07-01T11:18:24;10.00;;;6.40;;
5060;SDS011;2549;52.128;21.068;2022-07-01T11:20:51;14.03;;;6.27;;
5060;SDS011;2549;52.128;21.068;2022-07-01T11:23:20;7.17;;;6.40;;
5060;SDS011;2549;52.128;21.068;2022-07-01T11:25:48;10.00;;;6.43;;
5060;SDS011;2549;52.128;21.068;2022-07-01T11:28:15;10.73;;;5.87;;
5060;SDS011;2549;52.128;21.068;2022-07-01T11:30:41;12.80;;;6.97;;
5060;SDS011;2549;52.128;21.068;2022-07-01T11:33:08;7.33;;;6.47;;
5060;SDS011;2549;52.128;21.068;2022-07-01T11:35:36;9.27;;;6.20;;
5060;SDS011;2549;52.128;21.068;2022-07-01T11:38:23;6.43;;;5.83;;
5060;SDS011;2549;52.128;21.068;2022-07-01T11:41:17;6.47;;;5.97;;
5060;SDS011;2549;52.128;21.068;2022-07-01T11:43:47;10.43;;;6.90;;
5060;SDS011;2549;52.128;21.068;2022-07-01T11:46:15;7.73;;;6.30;;
5060;SDS011;2549;52.128;21.068;2022-07-01T11:48:43;8.10;;;6.17;;
5060;SDS011;2549;52.128;21.068;2022-07-01T11:51:18;16.70;;;6.23;;
5060;SDS011;2549;52.128;21.068;2022-07-01T11:53:51;5.90;;;5.40;;
5060;SDS011;2549;52.128;21.068;2022-07-01T11:56:30;8.60;;;5.77;;
5060;SDS011;2549;52.128;21.068;2022-07-01T11:59:00;8.17;;;5.73;;
5060;SDS011;2549;52.128;21.068;2022-07-01T12:01:31;11.77;;;6.03;;
5060;SDS011;2549;52.128;21.068;2022-07-01T12:04:06;7.47;;;5.87;;
5060;SDS011;2549;52.128;21.068;2022-07-01T12:06:36;7.30;;;6.30;;
5060;SDS011;2549;52.128;21.068;2022-07-01T12:09:13;9.00;;;5.53;;
5060;SDS011;2549;52.128;21.068;2022-07-01T12:11:45;6.27;;;5.13;;
5060;SDS011;2549;52.128;21.068;2022-07-01T12:14:23;9.37;;;5.90;;
5060;SDS011;2549;52.128;21.068;2022-07-01T12:16:53;7.77;;;5.47;;
5060;SDS011;2549;52.128;21.068;2022-07-01T12:21:56;6.10;;;5.50;;
5060;SDS011;2549;52.128;21.068;2022-07-01T12:24:26;14.23;;;5.20;;
5060;SDS011;2549;52.128;21.068;2022-07-01T12:29:29;7.33;;;5.10;;
5060;SDS011;2549;52.128;21.068;2022-07-01T12:32:18;7.23;;;5.20;;
5060;SDS011;2549;52.128;21.068;2022-07-01T12:39:55;21.17;;;5.53;;
5060;SDS011;2549;52.128;21.068;2022-07-01T12:42:32;9.20;;;5.40;;
5060;SDS011;2549;52.128;21.068;2022-07-01T12:45:01;10.80;;;5.70;;
5060;SDS011;2549;52.128;21.068;2022-07-01T12:50:10;6.27;;;5.27;;
5060;SDS011;2549;52.128;21.068;2022-07-01T12:52:58;8.20;;;5.10;;
5060;SDS011;2549;52.128;21.068;2022-07-01T12:55:43;11.67;;;5.10;;
5060;SDS011;2549;52.128;21.068;2022-07-01T12:58:15;9.40;;;5.70;;
5060;SDS011;2549;52.128;21.068;2022-07-01T13:00:45;5.63;;;4.80;;
5060;SDS011;2549;52.128;21.068;2022-07-01T13:03:13;9.07;;;5.60;;
5060;SDS011;2549;52.128;21.068;2022-07-01T13:05:40;8.50;;;5.17;;
5060;SDS011;2549;52.128;21.068;2022-07-01T13:08:08;16.40;;;5.80;;
5060;SDS011;2549;52.128;21.068;2022-07-01T13:10:36;5.37;;;4.87;;
5060;SDS011;2549;52.128;21.068;2022-07-01T13:13:04;5.70;;;4.80;;
5060;SDS011;2549;52.128;21.068;2022-07-01T13:15:31;7.20;;;4.73;;
5060;SDS011;2549;52.128;21.068;2022-07-01T13:17:59;8.03;;;5.30;;
5060;SDS011;2549;52.128;21.068;2022-07-01T13:20:26;11.03;;;4.70;;
5060;SDS011;2549;52.128;21.068;2022-07-01T13:22:53;13.60;;;5.20;;
5060;SDS011;2549;52.128;21.068;2022-07-01T13:25:20;5.83;;;5.03;;
5060;SDS011;2549;52.128;21.068;2022-07-01T13:27:48;11.60;;;5.37;;
5060;SDS011;2549;52.128;21.068;2022-07-01T13:30:14;8.70;;;6.53;;
5060;SDS011;2549;52.128;21.068;2022-07-01T13:32:44;6.60;;;4.70;;
5060;SDS011;2549;52.128;21.068;2022-07-01T13:35:12;9.83;;;4.87;;
5060;SDS011;2549;52.128;21.068;2022-07-01T13:37:41;11.93;;;4.70;;
5060;SDS011;2549;52.128;21.068;2022-07-01T13:40:08;11.93;;;4.83;;
5060;SDS011;2549;52.128;21.068;2022-07-01T13:42:36;4.90;;;4.57;;
5060;SDS011;2549;52.128;21.068;2022-07-01T13:45:04;5.40;;;4.50;;
5060;SDS011;2549;52.128;21.068;2022-07-01T13:47:31;6.07;;;4.73;;
5060;SDS011;2549;52.128;21.068;2022-07-01T13:49:58;5.27;;;4.87;;
5060;SDS011;2549;52.128;21.068;2022-07-01T13:52:25;16.23;;;4.90;;
5060;SDS011;2549;52.128;21.068;2022-07-01T13:54:56;6.00;;;4.50;;
5060;SDS011;2549;52.128;21.068;2022-07-01T13:57:23;15.53;;;4.53;;
5060;SDS011;2549;52.128;21.068;2022-07-01T13:59:51;7.43;;;4.87;;
5060;SDS011;2549;52.128;21.068;2022-07-01T14:02:19;6.50;;;5.50;;
5060;SDS011;2549;52.128;21.068;2022-07-01T14:04:46;5.17;;;4.73;;
5060;SDS011;2549;52.128;21.068;2022-07-01T14:07:14;10.13;;;5.03;;
5060;SDS011;2549;52.128;21.068;2022-07-01T14:09:41;6.20;;;4.70;;
5060;SDS011;2549;52.128;21.068;2022-07-01T14:12:10;7.33;;;5.03;;
5060;SDS011;2549;52.128;21.068;2022-07-01T14:14:47;5.23;;;4.73;;
5060;SDS011;2549;52.128;21.068;2022-07-01T14:17:14;4.93;;;4.30;;
5060;SDS011;2549;52.128;21.068;2022-07-01T14:19:40;6.57;;;4.90;;
5060;SDS011;2549;52.128;21.068;2022-07-01T14:22:07;10.40;;;4.80;;
5060;SDS011;2549;52.128;21.068;2022-07-01T14:24:34;18.13;;;6.43;;
5060;SDS011;2549;52.128;21.068;2022-07-01T14:27:02;5.00;;;4.50;;
5060;SDS011;2549;52.128;21.068;2022-07-01T14:29:29;6.50;;;5.33;;
5060;SDS011;2549;52.128;21.068;2022-07-01T14:31:56;6.50;;;4.67;;
5060;SDS011;2549;52.128;21.068;2022-07-01T14:34:23;5.07;;;4.67;;
5060;SDS011;2549;52.128;21.068;2022-07-01T14:36:50;5.33;;;4.93;;
5060;SDS011;2549;52.128;21.068;2022-07-01T14:39:17;6.07;;;5.40;;
5060;SDS011;2549;52.128;21.068;2022-07-01T14:41:44;6.17;;;4.53;;
5060;SDS011;2549;52.128;21.068;2022-07-01T14:44:21;7.13;;;4.80;;
5060;SDS011;2549;52.128;21.068;2022-07-01T14:46:48;6.73;;;4.20;;
5060;SDS011;2549;52.128;21.068;2022-07-01T14:49:20;5.40;;;4.90;;
5060;SDS011;2549;52.128;21.068;2022-07-01T14:51:50;6.90;;;5.20;;
5060;SDS011;2549;52.128;21.068;2022-07-01T14:54:17;10.10;;;5.40;;
5060;SDS011;2549;52.128;21.068;2022-07-01T14:56:44;6.80;;;4.20;;
5060;SDS011;2549;52.128;21.068;2022-07-01T14:59:11;5.33;;;4.93;;
5060;SDS011;2549;52.128;21.068;2022-07-01T15:01:38;5.50;;;5.10;;
5060;SDS011;2549;52.128;21.068;2022-07-01T15:04:05;7.97;;;5.00;;
5060;SDS011;2549;52.128;21.068;2022-07-01T15:06:32;7.60;;;4.70;;
5060;SDS011;2549;52.128;21.068;2022-07-01T15:08:59;5.47;;;4.93;;
5060;SDS011;2549;52.128;21.068;2022-07-01T15:11:26;5.97;;;5.17;;
5060;SDS011;2549;52.128;21.068;2022-07-01T15:13:53;6.47;;;5.40;;
5060;SDS011;2549;52.128;21.068;2022-07-01T15:16:20;5.70;;;5.13;;
5060;SDS011;2549;52.128;21.068;2022-07-01T15:18:49;9.03;;;4.30;;
5060;SDS011;2549;52.128;21.068;2022-07-01T15:21:16;8.97;;;5.47;;
5060;SDS011;2549;52.128;21.068;2022-07-01T15:23:43;7.30;;;5.27;;